Skip Navigation LinksHome page > Weather > Current weather Skip Navigation Links

Current Weather

George Bush Intercontinental Arpt/Houston, Houston

For information only: do not use for flight planning or navigation.
Latest weather
Observation time Sunday, May 26, 2019 10:53 AM CDT
Local time Sunday, May 26, 2019 11:03 AM CDT
Flight conditions Visual Meteorological Conditions
Winds
Wind direction South-Southeast (150°)
Wind speed 14 mph
Visibility 10 mi.
Sky condition
Ceiling unlimited
Cloud layer scattered clouds 3,300 ft.
Cloud layer scattered clouds 25,000 ft.
Temperature 86°F
Dewpoint 72°F
Altimeter 30.09 in.Hg
Derived measurements
Relative humidity 63%
Heat index 92°F
Density altitude 1985 ft.
Sea-level pressure 30.08 in.Hg
Remarks
Automated weather observing station with precipitation discriminator.
METAR KIAH 261553Z 15012KT 10SM SCT033 SCT250 30/22 A3009 RMK AO2 SLP187 T03000222

Settings

Location code

InnerDrive.Weather 4.0.6770.0 Release CLR 4.0.30319.42000
Copyright ©2018 Inner Drive Technology. All rights reserved. Portions Copyright ©1986-2018 David Braverman.

Find weather

Site navigation


Skip Navigation Links

Place info

Page info

PayPal - The safer, easier way to pay online!

Return home.

Copyright ©2019 Inner Drive Technology. Purveyors of fine, hand-crafted computer software. Page printed 2019-05-26T16:03:37 UTC.